Time;durP1;ratioP1;P1;durP2;ratioP2;P2;SDS_P1;SDS_P2;PMS_P1;PMS_P2;Temp;Humidity;BMP_temperature;BMP_pressure;BME280_temperature;BME280_humidity;BME280_pressure;Samples;Min_cycle;Max_cycle;Signal;HPM_P1;HPM_P2
2022/11/15 00:00:49;;;;;;;197.65;117.63;;;9.10;99.90;;;;;;5081874;28;20074;-76
2022/11/15 00:03:36;;;;;;;204.25;116.88;;;9.10;99.90;;;;;;5080825;28;20048;-76
2022/11/15 00:06:22;;;;;;;210.18;124.68;;;9.10;99.90;;;;;;5081040;28;20046;-74
2022/11/15 00:09:08;;;;;;;;;;;9.10;99.90;;;;;;5079527;28;20063;-74
2022/11/15 00:11:54;;;;;;;211.63;126.22;;;9.00;99.90;;;;;;5081470;28;20449;-76
2022/11/15 00:14:39;;;;;;;217.25;128.45;;;9.00;99.90;;;;;;5081548;28;20047;-76
2022/11/15 00:17:25;;;;;;;214.63;125.38;;;9.00;99.90;;;;;;5081388;28;20050;-76
2022/11/15 00:20:13;;;;;;;212.63;128.27;;;9.10;99.90;;;;;;5080031;28;20055;-74
2022/11/15 00:22:59;;;;;;;208.95;127.70;;;9.00;99.90;;;;;;5079149;28;20178;-76
2022/11/15 00:25:44;;;;;;;219.60;130.15;;;9.00;99.90;;;;;;5080971;28;20051;-75
2022/11/15 00:28:31;;;;;;;217.30;128.80;;;9.10;99.90;;;;;;5081873;28;20188;-76
2022/11/15 00:31:17;;;;;;;231.60;132.73;;;9.10;99.90;;;;;;5079823;28;20051;-76
2022/11/15 00:34:02;;;;;;;238.85;139.75;;;9.00;99.90;;;;;;5080818;28;20051;-76
2022/11/15 00:36:50;;;;;;;253.10;150.43;;;9.10;99.90;;;;;;5080732;28;20046;-76
2022/11/15 00:39:35;;;;;;;255.93;147.98;;;9.10;99.90;;;;;;5079915;28;20415;-74
2022/11/15 00:42:21;;;;;;;246.52;145.60;;;9.10;99.90;;;;;;5079902;28;20178;-77
2022/11/15 00:45:08;;;;;;;229.85;135.02;;;9.20;99.90;;;;;;5080941;28;20523;-75
2022/11/15 00:47:54;;;;;;;240.00;141.60;;;9.20;99.90;;;;;;5080529;28;20044;-76
2022/11/15 00:50:40;;;;;;;213.90;124.78;;;9.20;99.90;;;;;;5079234;28;20055;-76
2022/11/15 00:53:28;;;;;;;207.48;125.63;;;9.20;99.90;;;;;;5081305;28;20511;-76
2022/11/15 00:56:14;;;;;;;209.85;125.53;;;9.20;99.90;;;;;;5079006;28;20051;-76
2022/11/15 00:59:01;;;;;;;216.82;128.50;;;9.20;99.90;;;;;;5080007;28;20446;-75
2022/11/15 01:01:46;;;;;;;210.32;122.90;;;9.30;99.90;;;;;;5080647;28;20097;-74
2022/11/15 01:04:32;;;;;;;211.02;126.38;;;9.30;99.90;;;;;;5078503;28;20070;-77
2022/11/15 01:07:18;;;;;;;204.77;123.05;;;9.30;99.90;;;;;;5076849;28;20136;-75
2022/11/15 01:10:06;;;;;;;205.57;125.60;;;9.40;99.90;;;;;;5080715;28;20450;-76
2022/11/15 01:12:52;;;;;;;210.00;126.07;;;9.40;99.90;;;;;;5079591;28;20410;-76
2022/11/15 01:15:41;;;;;;;207.07;126.25;;;9.40;99.90;;;;;;5081132;28;20047;-76
2022/11/15 01:18:27;;;;;;;216.07;126.53;;;9.40;99.90;;;;;;5078025;28;20559;-75
2022/11/15 01:21:16;;;;;;;205.07;125.57;;;9.40;99.90;;;;;;5078560;28;20060;-75
2022/11/15 01:24:02;;;;;;;207.27;126.20;;;9.40;99.90;;;;;;5077642;28;20094;-76
2022/11/15 01:26:49;;;;;;;214.77;127.05;;;9.40;99.90;;;;;;5080309;28;20758;-75
2022/11/15 01:29:35;;;;;;;213.93;126.50;;;9.40;99.90;;;;;;5078555;28;20136;-74
2022/11/15 01:32:21;;;;;;;213.70;122.03;;;9.40;99.90;;;;;;5078086;28;20048;-75
2022/11/15 01:35:07;;;;;;;215.13;121.22;;;9.30;99.90;;;;;;5079963;28;20121;-75
2022/11/15 01:37:52;;;;;;;207.57;119.15;;;9.30;99.90;;;;;;5079986;28;20050;-75
2022/11/15 01:40:38;;;;;;;202.13;119.32;;;9.30;99.90;;;;;;5079623;28;20153;-75
2022/11/15 01:43:27;;;;;;;206.48;119.45;;;9.30;99.90;;;;;;5078301;28;20101;-76
2022/11/15 01:46:25;;;;;;;204.65;118.00;;;9.30;99.90;;;;;;5079502;28;20071;-77
2022/11/15 01:49:17;;;;;;;200.93;115.70;;;9.40;99.90;;;;;;5082182;28;20415;-76
2022/11/15 01:52:05;;;;;;;192.75;110.82;;;9.40;99.90;;;;;;5083825;28;20067;-77
2022/11/15 01:54:55;;;;;;;187.73;104.63;;;9.40;99.90;;;;;;5082753;28;20056;-75
2022/11/15 01:57:43;;;;;;;186.07;104.30;;;9.40;99.90;;;;;;5080105;28;20050;-76
2022/11/15 02:00:32;;;;;;;195.50;106.63;;;9.40;99.90;;;;;;5093603;28;20055;-76
2022/11/15 02:03:18;;;;;;;191.18;103.70;;;9.40;99.90;;;;;;5088885;28;20619;-75
2022/11/15 02:06:06;;;;;;;185.82;102.28;;;9.40;99.90;;;;;;5081145;28;20412;-76
2022/11/15 02:08:52;;;;;;;197.52;102.40;;;9.40;99.90;;;;;;5076843;28;20059;-74
2022/11/15 02:11:38;;;;;;;204.80;101.90;;;9.40;99.90;;;;;;5079544;28;20082;-77
2022/11/15 02:14:29;;;;;;;202.90;100.70;;;9.40;99.90;;;;;;5080777;28;20561;-76
2022/11/15 02:17:40;;;;;;;196.10;100.65;;;9.40;99.90;;;;;;5079970;28;20145;-75
2022/11/15 02:20:59;;;;;;;200.45;100.18;;;9.40;99.90;;;;;;5077955;28;20063;-76
2022/11/15 02:24:22;;;;;;;216.00;103.07;;;9.40;99.90;;;;;;5043854;28;20059;-75
2022/11/15 02:27:40;;;;;;;208.75;101.32;;;9.30;99.90;;;;;;5079992;28;20047;-75
2022/11/15 02:30:37;;;;;;;208.85;101.88;;;9.20;99.90;;;;;;5077286;28;20105;-76
2022/11/15 02:33:32;;;;;;;195.48;103.20;;;9.10;99.90;;;;;;5078463;28;20052;-76
2022/11/15 02:36:26;;;;;;;205.80;106.55;;;9.10;99.90;;;;;;5079786;28;20519;-77
2022/11/15 02:39:20;;;;;;;210.50;106.05;;;9.10;99.90;;;;;;5078009;28;20047;-77
2022/11/15 02:43:56;;;;;;;197.07;103.88;;;9.00;99.90;;;;;;5078000;28;20150;-76
2022/11/15 02:45:21;;;;;;;207.63;112.72;;;9.10;99.90;;;;;;5078981;28;20552;-76
2022/11/15 02:48:10;;;;;;;214.23;113.25;;;9.00;99.90;;;;;;5086184;28;20074;-77
2022/11/15 02:50:56;;;;;;;223.43;122.28;;;9.10;99.90;;;;;;5090309;28;20501;-75
2022/11/15 02:53:42;;;;;;;236.43;123.28;;;9.00;99.90;;;;;;5078578;28;20055;-75
2022/11/15 02:56:28;;;;;;;220.93;120.85;;;8.90;99.90;;;;;;5077405;28;20055;-75
2022/11/15 02:59:53;;;;;;;226.38;120.97;;;9.00;99.90;;;;;;5079194;28;20204;-76
2022/11/15 03:03:05;;;;;;;227.20;122.85;;;8.90;99.90;;;;;;5078035;28;20105;-75
2022/11/15 03:05:59;;;;;;;213.15;114.20;;;9.00;99.90;;;;;;5079750;28;20210;-77
2022/11/15 03:08:56;;;;;;;213.07;114.30;;;9.10;99.90;;;;;;5081357;28;20039;-77
2022/11/15 03:11:47;;;;;;;217.40;112.38;;;9.00;99.90;;;;;;5081208;28;20361;-76
2022/11/15 03:14:38;;;;;;;221.50;115.90;;;8.90;99.90;;;;;;5083166;28;20510;-74
2022/11/15 03:17:27;;;;;;;216.85;118.93;;;8.90;99.90;;;;;;5083015;28;20418;-76
2022/11/15 03:20:16;;;;;;;220.35;121.93;;;9.00;99.90;;;;;;5080766;28;20058;-78
2022/11/15 03:23:09;;;;;;;226.70;124.75;;;9.00;99.90;;;;;;5080755;28;20051;-76
2022/11/15 03:25:57;;;;;;;226.48;125.43;;;9.10;99.90;;;;;;5081582;28;20097;-77
2022/11/15 03:28:47;;;;;;;220.05;124.07;;;9.00;99.90;;;;;;5078869;28;20129;-76
2022/11/15 03:31:50;;;;;;;220.57;125.38;;;9.00;99.90;;;;;;5080537;28;20479;-75
2022/11/15 03:34:39;;;;;;;222.63;126.22;;;9.00;99.90;;;;;;5081827;28;21039;-76
2022/11/15 03:37:32;;;;;;;217.45;123.90;;;9.00;99.90;;;;;;5080982;28;20131;-78
2022/11/15 03:40:26;;;;;;;223.13;127.05;;;9.00;99.90;;;;;;5082055;28;20058;-77
2022/11/15 03:43:21;;;;;;;227.27;129.45;;;8.90;99.90;;;;;;5081400;28;20144;-76
2022/11/15 03:46:12;;;;;;;225.75;129.10;;;8.90;99.90;;;;;;5080753;28;20056;-76
2022/11/15 03:49:07;;;;;;;227.55;129.52;;;8.80;99.90;;;;;;5080420;28;20051;-77
2022/11/15 03:51:53;;;;;;;230.27;130.35;;;8.80;99.90;;;;;;5081148;28;20149;-76
2022/11/15 03:54:49;;;;;;;225.10;125.32;;;8.70;99.90;;;;;;5081492;28;20050;-76
2022/11/15 03:57:36;;;;;;;224.65;129.77;;;8.70;99.90;;;;;;5080127;28;20096;-76
2022/11/15 04:00:23;;;;;;;229.32;129.00;;;8.70;99.90;;;;;;5081265;28;20055;-75
2022/11/15 04:03:08;;;;;;;225.90;128.07;;;8.70;99.90;;;;;;5081556;28;20522;-77
2022/11/15 04:05:54;;;;;;;228.43;122.90;;;8.70;99.90;;;;;;5080542;28;20095;-75
2022/11/15 04:08:40;;;;;;;229.35;118.75;;;8.80;99.90;;;;;;5080549;28;20060;-75
2022/11/15 04:11:26;;;;;;;238.07;116.72;;;8.80;99.90;;;;;;5079519;28;20171;-74
2022/11/15 04:14:14;;;;;;;217.93;115.35;;;8.80;99.90;;;;;;5081033;28;20052;-77
2022/11/15 04:17:00;;;;;;;226.30;115.70;;;8.90;99.90;;;;;;5081743;28;20063;-76
2022/11/15 04:26:02;;;;;;;211.00;109.78;;;9.10;99.90;;;;;;5080987;28;20135;-75
2022/11/15 04:31:49;;;;;;;215.63;109.57;;;9.10;99.90;;;;;;5078289;28;20051;-75
2022/11/15 04:34:35;;;;;;;211.57;109.40;;;9.10;99.90;;;;;;5079570;28;20518;-77
2022/11/15 04:37:20;;;;;;;219.18;113.22;;;9.10;99.90;;;;;;5081276;28;20659;-76
2022/11/15 04:40:06;;;;;;;198.93;107.10;;;9.20;99.90;;;;;;5080346;28;20059;-76
2022/11/15 04:42:52;;;;;;;204.57;107.60;;;9.20;99.90;;;;;;5080066;28;20538;-76
2022/11/15 04:45:38;;;;;;;208.63;108.68;;;9.20;99.90;;;;;;5077271;28;20059;-75
2022/11/15 04:48:26;;;;;;;208.02;105.75;;;9.20;99.90;;;;;;5079050;28;20133;-76
2022/11/15 04:51:11;;;;;;;196.50;103.93;;;9.20;99.90;;;;;;5078267;28;20059;-76
2022/11/15 04:53:57;;;;;;;211.13;104.80;;;9.20;99.90;;;;;;5080878;28;20081;-75
2022/11/15 04:56:43;;;;;;;203.63;103.35;;;9.20;99.90;;;;;;5080426;28;20056;-75
2022/11/15 04:59:29;;;;;;;206.82;102.45;;;9.20;99.90;;;;;;5079268;28;20062;-77
2022/11/15 05:02:17;;;;;;;215.77;106.70;;;9.20;99.90;;;;;;5079538;28;20054;-76
2022/11/15 05:05:03;;;;;;;244.43;116.90;;;9.30;99.90;;;;;;5080634;28;20051;-76
2022/11/15 05:07:49;;;;;;;271.10;117.07;;;9.30;99.90;;;;;;5079581;28;20059;-76
2022/11/15 05:10:35;;;;;;;209.73;110.30;;;9.20;99.90;;;;;;5080359;28;20067;-76
2022/11/15 05:13:21;;;;;;;211.65;110.38;;;9.20;99.90;;;;;;5079455;28;20058;-76
2022/11/15 05:16:07;;;;;;;220.68;113.95;;;9.20;99.90;;;;;;5080013;28;20274;-76
2022/11/15 05:18:53;;;;;;;;;;;9.20;99.90;;;;;;5080347;28;20416;-77
2022/11/15 05:21:41;;;;;;;213.65;116.20;;;9.30;99.90;;;;;;5081124;28;19927;-76
2022/11/15 05:24:26;;;;;;;214.85;116.50;;;9.30;99.90;;;;;;5081443;28;20055;-75
2022/11/15 05:27:12;;;;;;;212.23;113.57;;;9.40;99.90;;;;;;5080680;28;20051;-77
2022/11/15 05:29:58;;;;;;;211.00;113.07;;;9.40;99.90;;;;;;5080121;28;20054;-75
2022/11/15 05:32:44;;;;;;;213.68;115.30;;;9.40;99.90;;;;;;5081279;28;20059;-76
2022/11/15 05:35:35;;;;;;;208.43;106.00;;;9.40;99.90;;;;;;5078055;28;20047;-77
2022/11/15 05:38:24;;;;;;;212.20;105.47;;;9.40;99.90;;;;;;5080302;28;20051;-75
2022/11/15 05:41:11;;;;;;;200.63;100.47;;;9.30;99.90;;;;;;5082590;28;20549;-78
2022/11/15 05:43:58;;;;;;;214.30;108.63;;;9.30;99.90;;;;;;5079149;28;20514;-75
2022/11/15 05:46:44;;;;;;;207.15;104.57;;;9.30;99.90;;;;;;5080667;28;20052;-75
2022/11/15 05:49:36;;;;;;;219.95;113.07;;;9.30;99.90;;;;;;5079803;28;20066;-75
2022/11/15 05:52:26;;;;;;;195.80;104.50;;;9.40;99.90;;;;;;5079954;28;20044;-74
2022/11/15 05:55:14;;;;;;;200.32;102.47;;;9.40;99.90;;;;;;5080065;28;20101;-77
2022/11/15 05:58:01;;;;;;;205.80;105.85;;;9.40;99.90;;;;;;5079092;28;20079;-74
2022/11/15 06:00:47;;;;;;;218.48;112.22;;;9.40;99.90;;;;;;5080208;28;20059;-76
2022/11/15 06:03:33;;;;;;;;;;;9.40;99.90;;;;;;5078295;28;20415;-77
2022/11/15 06:06:19;;;;;;;274.05;125.00;;;9.30;99.90;;;;;;5078303;28;20005;-76
2022/11/15 06:09:05;;;;;;;250.23;121.60;;;9.30;99.90;;;;;;5079265;28;20066;-75
2022/11/15 06:11:52;;;;;;;295.50;132.13;;;9.20;99.90;;;;;;5078722;28;20048;-75
2022/11/15 06:14:38;;;;;;;237.40;124.10;;;9.20;99.90;;;;;;5079010;28;20047;-75
2022/11/15 06:17:24;;;;;;;;;;;9.10;99.90;;;;;;5080318;28;20420;-75
2022/11/15 06:20:11;;;;;;;359.58;139.93;;;9.10;99.90;;;;;;5075523;28;20399;-76
2022/11/15 06:22:59;;;;;;;314.90;129.70;;;9.20;99.90;;;;;;5078474;28;20588;-76
2022/11/15 06:25:45;;;;;;;281.10;123.38;;;9.20;99.90;;;;;;5079815;28;20051;-75
2022/11/15 06:28:33;;;;;;;234.60;124.70;;;9.20;99.90;;;;;;5078648;28;20071;-77
2022/11/15 06:31:19;;;;;;;289.77;129.45;;;9.20;99.90;;;;;;5079753;28;20075;-75
2022/11/15 06:34:05;;;;;;;258.88;131.90;;;9.20;99.90;;;;;;5079902;28;20067;-77
2022/11/15 06:36:50;;;;;;;244.95;129.27;;;9.20;99.90;;;;;;5084402;28;20051;-76
2022/11/15 06:39:36;;;;;;;254.30;127.68;;;9.20;99.90;;;;;;5096055;28;20047;-75
2022/11/15 06:42:22;;;;;;;280.85;132.65;;;9.30;99.90;;;;;;5096790;28;20058;-78
2022/11/15 06:45:11;;;;;;;289.63;137.20;;;9.30;99.90;;;;;;5090650;28;20046;-76
2022/11/15 06:47:58;;;;;;;295.00;130.80;;;9.30;99.90;;;;;;5085121;28;20051;-77
2022/11/15 06:50:44;;;;;;;265.60;126.72;;;9.30;99.90;;;;;;5086435;28;20059;-77
2022/11/15 06:53:31;;;;;;;269.02;115.85;;;9.10;99.90;;;;;;5082387;28;20133;-76
2022/11/15 06:56:17;;;;;;;299.95;123.18;;;9.10;99.90;;;;;;5083198;28;20407;-75
2022/11/15 06:59:04;;;;;;;294.40;123.80;;;9.10;99.90;;;;;;5082946;28;20177;-76
2022/11/15 07:01:52;;;;;;;242.55;119.50;;;9.10;99.90;;;;;;5082311;28;20104;-76
2022/11/15 07:04:38;;;;;;;405.10;132.52;;;9.30;99.90;;;;;;5087986;28;20051;-76
2022/11/15 07:07:24;;;;;;;239.82;115.30;;;9.30;99.90;;;;;;5088101;28;20102;-75
2022/11/15 07:10:10;;;;;;;246.60;123.93;;;9.30;99.90;;;;;;5081922;28;20457;-77
2022/11/15 07:12:57;;;;;;;254.23;122.80;;;9.40;99.90;;;;;;5080895;28;20552;-77
2022/11/15 07:15:43;;;;;;;258.80;114.00;;;9.50;99.90;;;;;;5082555;28;20173;-77
2022/11/15 07:18:31;;;;;;;244.85;118.97;;;9.50;99.90;;;;;;5075971;28;20042;-75
2022/11/15 07:21:17;;;;;;;267.40;122.43;;;9.50;99.90;;;;;;5081210;28;20189;-77
2022/11/15 07:24:03;;;;;;;306.27;118.53;;;9.50;99.90;;;;;;5082548;28;20055;-77
2022/11/15 07:26:49;;;;;;;255.30;121.60;;;9.50;99.90;;;;;;5082792;28;20174;-78
2022/11/15 07:29:36;;;;;;;265.88;124.80;;;9.50;99.90;;;;;;5083134;28;20059;-75
2022/11/15 07:32:22;;;;;;;233.75;119.68;;;9.50;99.90;;;;;;5081602;28;20544;-77
2022/11/15 07:35:09;;;;;;;237.95;114.55;;;9.60;99.90;;;;;;5081429;28;20055;-75
2022/11/15 07:37:57;;;;;;;194.48;106.70;;;9.60;99.90;;;;;;5081096;28;20074;-75
2022/11/15 07:40:43;;;;;;;206.73;112.47;;;9.60;99.90;;;;;;5081513;28;20564;-77
2022/11/15 07:43:29;;;;;;;226.80;110.60;;;9.70;99.90;;;;;;5081403;28;20082;-78
2022/11/15 07:46:23;;;;;;;;;;;9.80;99.90;;;;;;5082331;28;20215;-78
2022/11/15 07:49:09;;;;;;;185.65;107.28;;;9.90;99.90;;;;;;5084526;28;19989;-73
2022/11/15 07:52:00;;;;;;;183.32;108.38;;;10.10;99.90;;;;;;5081500;28;20554;-75
2022/11/15 07:54:46;;;;;;;181.32;106.68;;;10.30;99.90;;;;;;5082278;28;20046;-75
2022/11/15 07:57:31;;;;;;;181.48;105.15;;;10.40;99.90;;;;;;5081031;28;20122;-77
2022/11/15 08:00:19;;;;;;;174.18;102.72;;;10.40;99.90;;;;;;5081213;28;20181;-77
2022/11/15 08:03:06;;;;;;;174.75;100.68;;;10.50;99.90;;;;;;5082052;28;20055;-76
2022/11/15 08:05:54;;;;;;;183.73;105.03;;;10.50;99.90;;;;;;5079865;28;20047;-76
2022/11/15 08:08:41;;;;;;;191.00;104.28;;;10.70;99.90;;;;;;5081426;28;20074;-76
2022/11/15 08:11:27;;;;;;;183.02;106.00;;;10.60;99.90;;;;;;5079476;28;20043;-77
2022/11/15 08:14:13;;;;;;;177.05;103.97;;;10.60;99.90;;;;;;5079777;28;20055;-77
2022/11/15 08:16:59;;;;;;;173.23;105.00;;;10.70;99.90;;;;;;5080605;28;20052;-76
2022/11/15 08:19:45;;;;;;;185.40;106.93;;;10.80;99.90;;;;;;5081126;28;20546;-77
2022/11/15 08:22:32;;;;;;;182.10;106.03;;;10.90;99.90;;;;;;5079150;28;20063;-75
2022/11/15 08:25:20;;;;;;;182.52;105.53;;;11.00;99.90;;;;;;5080999;28;20098;-74
2022/11/15 08:28:07;;;;;;;178.63;105.93;;;11.10;99.90;;;;;;5079064;28;20133;-77
2022/11/15 08:30:53;;;;;;;173.77;102.80;;;11.00;99.90;;;;;;5082044;28;20132;-75
2022/11/15 08:33:39;;;;;;;174.65;102.93;;;11.20;99.90;;;;;;5081566;28;20527;-74
2022/11/15 08:36:24;;;;;;;170.93;106.40;;;11.30;99.90;;;;;;5082642;28;20056;-75
2022/11/15 08:39:12;;;;;;;162.40;98.05;;;11.60;99.90;;;;;;5087332;28;20051;-74
2022/11/15 08:42:00;;;;;;;141.43;92.78;;;11.80;99.90;;;;;;5080025;28;20073;-77
2022/11/15 08:44:45;;;;;;;150.50;96.47;;;11.90;99.90;;;;;;5092065;28;20093;-75
2022/11/15 08:47:31;;;;;;;151.50;97.13;;;12.10;99.90;;;;;;5094429;28;20108;-75
2022/11/15 08:50:18;;;;;;;146.60;94.63;;;12.30;99.90;;;;;;5082370;28;20075;-74
2022/11/15 08:53:08;;;;;;;153.65;100.72;;;12.40;99.90;;;;;;5081274;28;20055;-75
2022/11/15 08:55:54;;;;;;;160.75;99.60;;;12.40;99.90;;;;;;5078283;28;20056;-75
2022/11/15 08:58:42;;;;;;;162.90;102.28;;;12.30;99.90;;;;;;5089411;28;20185;-75
2022/11/15 09:01:28;;;;;;;158.98;98.13;;;12.30;99.90;;;;;;5080227;28;20510;-77
2022/11/15 09:04:14;;;;;;;154.75;100.05;;;12.30;99.90;;;;;;5078406;28;20058;-76
2022/11/15 09:07:00;;;;;;;153.10;99.30;;;12.40;99.90;;;;;;5081039;28;20047;-78
2022/11/15 09:09:46;;;;;;;144.45;97.55;;;12.50;99.90;;;;;;5081401;28;20051;-75
2022/11/15 09:12:32;;;;;;;;;;;12.70;99.90;;;;;;5075533;28;20047;-77
2022/11/15 09:15:20;;;;;;;144.27;88.53;;;12.90;99.90;;;;;;5078623;28;20246;-74
2022/11/15 09:18:05;;;;;;;134.65;90.18;;;12.90;99.90;;;;;;5080554;28;20055;-76
2022/11/15 09:20:51;;;;;;;140.63;99.47;;;13.00;99.90;;;;;;5081111;28;20051;-77
2022/11/15 09:23:37;;;;;;;150.05;99.20;;;13.10;99.90;;;;;;5078651;28;20066;-75
2022/11/15 09:26:23;;;;;;;154.50;100.35;;;13.00;99.90;;;;;;5077539;28;20083;-75
2022/11/15 09:29:08;;;;;;;152.70;99.60;;;12.80;99.90;;;;;;5081625;28;20143;-76
2022/11/15 09:31:56;;;;;;;150.55;101.85;;;12.60;99.90;;;;;;5080193;28;20046;-76
2022/11/15 09:34:42;;;;;;;149.73;101.78;;;12.60;99.90;;;;;;5080463;28;20518;-77
2022/11/15 09:37:28;;;;;;;162.40;103.07;;;12.60;99.90;;;;;;5080432;28;20075;-74
2022/11/15 09:40:16;;;;;;;154.98;102.00;;;12.60;99.90;;;;;;5079138;28;20412;-77
2022/11/15 09:43:23;;;;;;;148.05;99.22;;;12.70;99.90;;;;;;5079271;28;20105;-75
2022/11/15 09:46:16;;;;;;;165.30;105.18;;;12.80;99.90;;;;;;5079761;28;20059;-75
2022/11/15 09:49:23;;;;;;;159.32;103.78;;;12.70;99.90;;;;;;5078641;28;20047;-75
2022/11/15 09:52:14;;;;;;;171.70;112.55;;;12.80;99.90;;;;;;5078377;28;20054;-76
2022/11/15 09:54:47;;;;;;;158.00;106.88;;;12.90;99.90;;;;;;5078490;28;20032;-75
2022/11/15 09:57:18;;;;;;;162.85;110.07;;;13.00;99.90;;;;;;5078579;28;20056;-75
2022/11/15 10:00:03;;;;;;;157.73;105.43;;;13.30;99.90;;;;;;5079992;28;20044;-76
2022/11/15 10:02:53;;;;;;;144.73;99.40;;;13.70;99.90;;;;;;5078512;28;20534;-76
2022/11/15 10:05:25;;;;;;;153.90;102.60;;;13.90;99.90;;;;;;5080487;28;20036;-76
2022/11/15 10:07:59;;;;;;;144.93;100.15;;;14.10;99.90;;;;;;5078131;28;20419;-75
2022/11/15 10:10:32;;;;;;;147.38;98.35;;;14.20;99.90;;;;;;5078679;28;20048;-78
2022/11/15 10:12:59;;;;;;;142.75;98.95;;;14.40;99.90;;;;;;5079404;28;20492;-77
2022/11/15 10:15:27;;;;;;;138.65;93.28;;;14.60;99.90;;;;;;5083969;28;20153;-76
2022/11/15 10:18:14;;;;;;;140.30;94.30;;;14.90;99.90;;;;;;5083676;28;20055;-75
2022/11/15 10:20:49;;;;;;;140.38;94.85;;;15.10;99.90;;;;;;5084096;28;20044;-77
2022/11/15 10:23:19;;;;;;;131.82;93.70;;;15.40;99.90;;;;;;5083501;28;20135;-77
2022/11/15 10:25:47;;;;;;;131.40;89.07;;;15.40;99.90;;;;;;5081359;28;20430;-77
2022/11/15 10:28:18;;;;;;;121.10;82.63;;;15.40;99.90;;;;;;5084811;28;20044;-76
2022/11/15 10:30:47;;;;;;;112.50;80.40;;;15.40;99.90;;;;;;5083391;28;20054;-76
2022/11/15 10:33:26;;;;;;;113.47;80.00;;;15.30;99.90;;;;;;5082501;28;20060;-75
2022/11/15 10:36:25;;;;;;;108.32;79.72;;;15.30;99.90;;;;;;5081152;28;20043;-76
2022/11/15 10:38:56;;;;;;;114.22;76.75;;;15.30;99.90;;;;;;5082447;28;20113;-75
2022/11/15 10:41:30;;;;;;;107.95;74.63;;;15.50;99.90;;;;;;5082479;28;20032;-76
2022/11/15 10:44:12;;;;;;;104.53;75.07;;;15.60;99.90;;;;;;5087340;28;20058;-74
2022/11/15 10:46:42;;;;;;;97.88;70.78;;;15.50;99.90;;;;;;5087095;28;20043;-75
2022/11/15 10:49:15;;;;;;;90.05;65.20;;;15.50;99.90;;;;;;5084814;28;20045;-76
2022/11/15 10:51:48;;;;;;;82.90;60.40;;;15.50;99.90;;;;;;5084422;28;20028;-77
2022/11/15 10:54:24;;;;;;;89.30;62.70;;;15.80;99.90;;;;;;5081187;28;20146;-76
2022/11/15 10:56:54;;;;;;;70.20;50.78;;;16.10;99.90;;;;;;5081970;28;20415;-76
2022/11/15 10:59:27;;;;;;;72.50;52.92;;;16.50;99.90;;;;;;5083098;28;20475;-76
2022/11/15 11:01:55;;;;;;;44.90;30.25;;;16.70;99.90;;;;;;5083568;28;20052;-77
2022/11/15 11:04:23;;;;;;;66.72;46.03;;;16.60;99.90;;;;;;5083752;28;20388;-75
2022/11/15 11:06:55;;;;;;;51.40;39.63;;;16.80;99.90;;;;;;5085024;28;20040;-75
2022/11/15 11:09:42;;;;;;;59.28;42.10;;;16.90;99.90;;;;;;5082959;28;20032;-77
2022/11/15 11:12:12;;;;;;;60.58;45.17;;;17.00;99.90;;;;;;5081692;28;20079;-75
2022/11/15 11:14:40;;;;;;;61.75;45.15;;;16.90;99.90;;;;;;5082474;28;20495;-77
2022/11/15 11:17:17;;;;;;;83.82;56.45;;;17.00;99.90;;;;;;5082474;28;20036;-76
2022/11/15 11:20:02;;;;;;;117.15;81.57;;;16.90;99.90;;;;;;5082948;28;20400;-77
2022/11/15 11:22:38;;;;;;;145.65;93.80;;;16.80;99.90;;;;;;5080685;28;20040;-75
2022/11/15 11:25:18;;;;;;;168.32;111.53;;;16.70;99.90;;;;;;5090211;28;20048;-77
2022/11/15 11:27:58;;;;;;;170.45;113.03;;;16.60;99.90;;;;;;5082988;28;20395;-75
2022/11/15 11:30:39;;;;;;;180.85;119.15;;;16.40;99.90;;;;;;5082633;28;20040;-76
2022/11/15 11:33:17;;;;;;;174.88;106.72;;;16.10;99.90;;;;;;5080325;28;20453;-76
2022/11/15 11:35:54;;;;;;;172.98;103.70;;;15.80;99.90;;;;;;5079001;28;20127;-75
2022/11/15 11:38:41;;;;;;;166.65;105.18;;;15.70;99.90;;;;;;5080811;28;20047;-74
2022/11/15 11:41:21;;;;;;;190.82;113.53;;;15.60;99.90;;;;;;5079189;28;20492;-77
2022/11/15 11:44:00;;;;;;;187.73;117.40;;;15.40;99.90;;;;;;5080646;28;20135;-76
2022/11/15 11:46:48;;;;;;;204.00;124.05;;;15.30;99.90;;;;;;5081643;28;20055;-77
2022/11/15 11:49:21;;;;;;;191.90;119.72;;;15.20;99.90;;;;;;5082369;28;20515;-77
2022/11/15 11:51:54;;;;;;;178.48;113.93;;;15.10;99.90;;;;;;5080749;28;20041;-76
2022/11/15 11:54:35;;;;;;;185.82;114.38;;;14.90;99.90;;;;;;5079100;28;20054;-75
2022/11/15 11:57:06;;;;;;;199.15;123.97;;;14.90;99.90;;;;;;5078726;28;20101;-76
2022/11/15 11:59:43;;;;;;;185.20;116.70;;;14.90;99.90;;;;;;5083390;28;20469;-75
2022/11/15 12:02:17;;;;;;;183.88;113.95;;;15.00;99.90;;;;;;5082850;28;20059;-78
2022/11/15 12:04:50;;;;;;;200.15;119.38;;;15.10;99.90;;;;;;5079801;28;20055;-78
2022/11/15 12:07:24;;;;;;;181.93;114.57;;;15.10;99.90;;;;;;5082338;28;20041;-77
2022/11/15 12:09:59;;;;;;;186.57;115.03;;;15.20;99.90;;;;;;5081030;28;20185;-76
2022/11/15 12:12:36;;;;;;;171.75;109.85;;;15.40;99.90;;;;;;5078325;28;20036;-78
2022/11/15 12:15:11;;;;;;;175.48;107.80;;;15.50;99.90;;;;;;5081268;28;20048;-78
2022/11/15 12:17:40;;;;;;;168.48;105.88;;;15.60;99.90;;;;;;5078320;28;20032;-79
2022/11/15 12:20:18;;;;;;;161.95;105.18;;;15.70;99.90;;;;;;5080130;28;20052;-77
2022/11/15 12:22:53;;;;;;;171.65;111.75;;;15.80;99.90;;;;;;5076738;28;20041;-77
2022/11/15 12:25:26;;;;;;;170.13;106.90;;;15.70;99.90;;;;;;5080940;28;20040;-75
2022/11/15 12:27:58;;;;;;;165.40;107.03;;;15.70;99.90;;;;;;5080896;28;20059;-75
2022/11/15 12:30:31;;;;;;;175.18;111.25;;;15.80;99.90;;;;;;5083472;28;20068;-77
2022/11/15 12:33:00;;;;;;;174.13;109.55;;;15.90;99.90;;;;;;5083296;28;20036;-81
2022/11/15 12:35:35;;;;;;;166.23;107.47;;;16.00;99.90;;;;;;5081965;28;20048;-79
2022/11/15 12:38:04;;;;;;;170.73;109.65;;;16.10;99.90;;;;;;5075540;28;20094;-78
2022/11/15 12:40:35;;;;;;;170.55;107.65;;;16.10;99.90;;;;;;5093044;28;20479;-79
2022/11/15 12:43:41;;;;;;;173.27;109.75;;;16.00;99.90;;;;;;5078425;28;20097;-78
2022/11/15 12:46:15;;;;;;;184.73;117.13;;;16.10;99.90;;;;;;5079329;28;20113;-76
2022/11/15 12:48:57;;;;;;;190.18;122.10;;;16.10;99.90;;;;;;5080204;28;20048;-79
2022/11/15 12:52:06;;;;;;;206.15;121.50;;;16.10;99.90;;;;;;5078614;28;20043;-76
2022/11/15 12:54:57;;;;;;;243.35;128.65;;;16.10;99.90;;;;;;5081018;28;20496;-79
2022/11/15 12:57:41;;;;;;;298.27;142.73;;;16.00;99.90;;;;;;5078321;28;20048;-75
2022/11/15 13:00:45;;;;;;;278.45;127.80;;;16.00;99.90;;;;;;5078778;28;20044;-77
2022/11/15 13:03:27;;;;;;;318.02;133.48;;;15.90;99.90;;;;;;5078544;28;20050;-76
2022/11/15 13:06:13;;;;;;;343.88;136.05;;;15.90;99.90;;;;;;5075435;28;20041;-77
2022/11/15 13:08:50;;;;;;;373.23;143.30;;;15.90;99.90;;;;;;5077705;28;20044;-76
2022/11/15 13:11:46;;;;;;;461.50;172.27;;;15.80;99.90;;;;;;5081049;28;20036;-74
2022/11/15 13:14:44;;;;;;;495.83;180.07;;;15.70;99.90;;;;;;5078226;28;20534;-79
2022/11/15 13:17:33;;;;;;;528.33;190.32;;;15.60;99.90;;;;;;5076194;28;20032;-77
2022/11/15 13:20:14;;;;;;;569.08;198.73;;;15.40;99.90;;;;;;5077097;28;20102;-76
2022/11/15 13:22:51;;;;;;;557.55;202.85;;;15.40;99.90;;;;;;5077389;28;20028;-75
2022/11/15 13:25:28;;;;;;;571.45;207.07;;;15.30;99.90;;;;;;5078838;28;20073;-77
2022/11/15 13:27:57;;;;;;;563.40;206.75;;;15.40;99.90;;;;;;5075585;28;20043;-77
2022/11/15 13:30:27;;;;;;;559.70;204.57;;;15.30;99.90;;;;;;5085780;28;20049;-74
2022/11/15 13:32:55;;;;;;;573.42;212.05;;;15.40;99.90;;;;;;5078022;28;20044;-78
2022/11/15 13:35:25;;;;;;;578.08;216.18;;;15.30;99.90;;;;;;5081018;28;20139;-76
2022/11/15 13:37:55;;;;;;;556.65;215.30;;;15.30;99.90;;;;;;5079735;28;20041;-77
2022/11/15 13:40:27;;;;;;;560.90;206.75;;;15.40;99.90;;;;;;5078865;28;20101;-78
2022/11/15 13:42:55;;;;;;;531.92;199.38;;;15.40;99.90;;;;;;5079607;28;20044;-76
2022/11/15 13:45:22;;;;;;;531.00;196.30;;;15.30;99.90;;;;;;5077506;28;20044;-76
2022/11/15 13:47:58;;;;;;;528.65;198.35;;;15.30;99.90;;;;;;5080215;28;20050;-77
2022/11/15 13:50:30;;;;;;;533.60;200.05;;;15.30;99.90;;;;;;5079435;28;20040;-78
2022/11/15 13:53:01;;;;;;;522.60;206.98;;;15.20;99.90;;;;;;5079207;28;20097;-75
2022/11/15 13:55:32;;;;;;;518.08;208.40;;;15.10;99.90;;;;;;5080049;28;20044;-76